createdAt,value
2023-04-17T00:02:16.846Z,-2.63
2023-04-17T00:04:45.416Z,-2.72
2023-04-17T00:07:13.416Z,-2.78
2023-04-17T00:09:41.183Z,-2.99
2023-04-17T00:12:09.118Z,-2.89
2023-04-17T00:14:36.898Z,-3.09
2023-04-17T00:17:06.110Z,-3.00
2023-04-17T00:19:34.011Z,-3.05
2023-04-17T00:22:01.896Z,-3.20
2023-04-17T00:24:29.788Z,-3.10
2023-04-17T00:26:58.351Z,-3.15
2023-04-17T00:29:26.254Z,-3.16
2023-04-17T00:31:54.184Z,-3.21
2023-04-17T00:34:23.387Z,-3.22
2023-04-17T00:36:51.283Z,-3.24
2023-04-17T00:39:19.043Z,-3.27
2023-04-17T00:41:47.002Z,-3.30
2023-04-17T00:44:14.861Z,-3.32
2023-04-17T00:46:42.720Z,-3.35
2023-04-17T00:49:11.985Z,-3.32
2023-04-17T00:51:41.355Z,-3.33
2023-04-17T00:54:10.307Z,-3.36
2023-04-17T00:56:38.405Z,-3.41
2023-04-17T00:59:09.925Z,-3.44
2023-04-17T01:01:38.051Z,-3.43
2023-04-17T01:04:06.594Z,-3.37
2023-04-17T01:06:34.496Z,-3.37
2023-04-17T01:09:04.109Z,-3.37
2023-04-17T01:11:31.945Z,-3.39
2023-04-17T01:13:59.760Z,-3.44
2023-04-17T01:16:27.715Z,-3.52
2023-04-17T01:18:55.645Z,-3.56
2023-04-17T01:21:23.438Z,-3.60
2023-04-17T01:23:52.974Z,-3.65
2023-04-17T01:26:23.553Z,-3.71
2023-04-17T01:28:53.071Z,-3.76
2023-04-17T01:31:21.165Z,-3.78
2023-04-17T01:33:49.899Z,-3.82
2023-04-17T01:36:18.353Z,-3.81
2023-04-17T01:38:46.569Z,-3.87
2023-04-17T01:41:14.436Z,-3.83
2023-04-17T01:43:45.881Z,-3.83
2023-04-17T01:46:14.536Z,-3.82
2023-04-17T01:48:42.644Z,-3.81
2023-04-17T01:51:10.494Z,-3.82
2023-04-17T01:53:40.460Z,-3.82
2023-04-17T01:56:08.783Z,-3.85
2023-04-17T01:58:36.536Z,-3.93
2023-04-17T02:01:06.226Z,-3.90
2023-04-17T02:03:34.192Z,-3.92
2023-04-17T02:06:02.081Z,-3.94
2023-04-17T02:08:30.518Z,-3.98
2023-04-17T02:10:58.404Z,-4.00
2023-04-17T02:13:26.292Z,-4.06
2023-04-17T02:15:54.545Z,-4.08
2023-04-17T02:18:23.806Z,-4.14
2023-04-17T02:20:51.691Z,-4.18
2023-04-17T02:23:19.492Z,-4.18
2023-04-17T02:25:47.325Z,-4.20
2023-04-17T02:28:15.835Z,-4.20
2023-04-17T02:30:45.680Z,-4.27
2023-04-17T02:33:15.760Z,-4.34
2023-04-17T02:35:44.925Z,-4.31
2023-04-17T02:38:12.771Z,-4.32
2023-04-17T02:40:40.620Z,-4.31
2023-04-17T02:43:08.473Z,-4.33
2023-04-17T02:45:36.680Z,-4.34
2023-04-17T02:48:04.741Z,-4.35
2023-04-17T02:50:32.624Z,-4.36
2023-04-17T02:53:01.749Z,-4.34
2023-04-17T02:55:29.696Z,-4.34
2023-04-17T02:57:57.553Z,-4.34
2023-04-17T03:00:26.368Z,-4.34
2023-04-17T03:02:54.336Z,-4.39
2023-04-17T03:05:23.420Z,-4.44
2023-04-17T03:07:51.361Z,-4.45
2023-04-17T03:10:20.568Z,-4.48
2023-04-17T03:12:48.396Z,-4.50
2023-04-17T03:15:16.209Z,-4.53
2023-04-17T03:17:43.994Z,-4.58
2023-04-17T03:20:12.195Z,-4.57
2023-04-17T03:22:39.975Z,-4.58
2023-04-17T03:25:08.379Z,-4.61
2023-04-17T03:27:38.706Z,-4.59
2023-04-17T03:30:07.900Z,-4.56
2023-04-17T03:32:36.019Z,-4.51
2023-04-17T03:35:04.113Z,-4.46
2023-04-17T03:37:32.418Z,-4.45
2023-04-17T03:40:00.387Z,-4.45
2023-04-17T03:42:28.537Z,-4.40
2023-04-17T03:44:58.540Z,-4.39
2023-04-17T03:47:26.459Z,-4.33
2023-04-17T03:49:54.292Z,-4.24
2023-04-17T03:52:23.691Z,-4.18
2023-04-17T03:54:51.840Z,-4.15
2023-04-17T03:57:19.648Z,-4.06
2023-04-17T03:59:47.462Z,-3.98
2023-04-17T04:02:16.691Z,-3.84
2023-04-17T04:04:44.589Z,-3.75
2023-04-17T04:07:12.669Z,-3.66
2023-04-17T04:09:40.502Z,-3.52
2023-04-17T04:12:08.464Z,-3.41
2023-04-17T04:14:40.422Z,-3.25
2023-04-17T04:17:09.605Z,-3.13
2023-04-17T04:19:38.810Z,-2.98
2023-04-17T04:22:07.079Z,-2.89
2023-04-17T04:24:35.270Z,-2.77
2023-04-17T04:27:05.422Z,-2.69
2023-04-17T04:29:35.131Z,-2.56
2023-04-17T04:32:03.691Z,-2.45
2023-04-17T04:34:31.583Z,-2.35
2023-04-17T04:37:01.330Z,-2.19
2023-04-17T04:39:29.978Z,-2.02
2023-04-17T04:42:05.869Z,-1.90
2023-04-17T04:44:33.702Z,-1.78
2023-04-17T04:47:01.688Z,-1.68
2023-04-17T04:49:29.606Z,-1.51
2023-04-17T04:51:57.436Z,-1.38
2023-04-17T04:54:26.548Z,-1.24
2023-04-17T04:56:54.328Z,-1.11
2023-04-17T04:59:22.156Z,-1.01
2023-04-17T05:01:50.642Z,-0.94
2023-04-17T05:04:18.656Z,-0.82
2023-04-17T05:06:46.542Z,-0.68
2023-04-17T05:09:16.707Z,-0.60
2023-04-17T05:11:46.123Z,-0.80
2023-04-17T05:14:13.930Z,-0.31
2023-04-17T05:16:41.881Z,-0.16
2023-04-17T05:19:09.802Z,-0.01
2023-04-17T05:21:37.856Z,0.15
2023-04-17T05:24:05.762Z,0.38
2023-04-17T05:26:33.551Z,0.67
2023-04-17T05:29:03.066Z,0.99
2023-04-17T05:31:31.179Z,1.39
2023-04-17T05:33:59.066Z,1.94
2023-04-17T05:36:27.796Z,2.46
2023-04-17T05:38:56.927Z,2.93
2023-04-17T05:41:24.799Z,3.43
2023-04-17T05:43:52.657Z,3.83
2023-04-17T05:46:22.243Z,4.31
2023-04-17T05:48:50.042Z,4.74
2023-04-17T05:51:17.996Z,5.11
2023-04-17T05:53:45.827Z,5.42
2023-04-17T05:56:13.649Z,5.83
2023-04-17T05:58:41.458Z,6.18
2023-04-17T06:01:10.344Z,6.35
2023-04-17T06:03:39.970Z,6.76
2023-04-17T06:06:08.872Z,7.17
2023-04-17T06:08:36.705Z,7.41
2023-04-17T06:11:04.518Z,7.68
2023-04-17T06:13:32.308Z,8.07
2023-04-17T06:16:00.202Z,8.56
2023-04-17T06:18:28.668Z,8.65
2023-04-17T06:20:58.551Z,8.77
2023-04-17T06:23:26.524Z,9.23
2023-04-17T06:25:54.312Z,9.12
2023-04-17T06:28:22.376Z,9.57
2023-04-17T06:30:51.981Z,9.92
2023-04-17T06:33:24.537Z,10.22
2023-04-17T06:35:53.910Z,10.19
2023-04-17T06:38:23.111Z,10.55
2023-04-17T06:40:52.731Z,10.59
2023-04-17T06:43:20.837Z,10.43
2023-04-17T06:45:49.171Z,10.91
2023-04-17T06:48:17.214Z,11.13
2023-04-17T06:50:44.986Z,11.27
2023-04-17T06:53:12.841Z,11.29
2023-04-17T06:55:42.118Z,11.44
2023-04-17T06:58:10.115Z,11.28
2023-04-17T07:00:37.928Z,11.62
2023-04-17T07:03:06.072Z,11.69
2023-04-17T07:05:33.933Z,11.72
2023-04-17T07:08:01.772Z,12.10
2023-04-17T07:10:29.685Z,12.46
2023-04-17T07:13:00.546Z,12.53
2023-04-17T07:15:30.771Z,13.05
2023-04-17T07:17:59.092Z,13.04
2023-04-17T07:20:28.692Z,13.32
2023-04-17T07:22:57.602Z,13.31
2023-04-17T07:25:26.501Z,13.31
2023-04-17T07:27:54.664Z,13.42
2023-04-17T07:30:23.904Z,13.75
2023-04-17T07:32:52.670Z,14.25
2023-04-17T07:35:21.240Z,14.38
2023-04-17T07:37:49.069Z,14.81
2023-04-17T07:40:17.267Z,14.46
2023-04-17T07:42:45.132Z,14.59
2023-04-17T07:45:13.053Z,15.16
2023-04-17T07:47:42.802Z,15.19
2023-04-17T07:50:10.911Z,15.47
2023-04-17T07:52:38.995Z,15.82
2023-04-17T07:55:07.363Z,15.80
2023-04-17T07:57:35.367Z,15.69
2023-04-17T08:00:04.580Z,15.42
2023-04-17T08:02:32.508Z,15.90
2023-04-17T08:05:02.246Z,16.06
2023-04-17T08:07:30.118Z,15.98
2023-04-17T08:09:58.142Z,16.59
2023-04-17T08:12:25.977Z,16.68
2023-04-17T08:14:53.747Z,17.31
2023-04-17T08:17:23.467Z,17.37
2023-04-17T08:19:53.534Z,17.58
2023-04-17T08:22:24.257Z,17.69
2023-04-17T08:24:54.770Z,17.69
2023-04-17T08:27:22.579Z,18.42
2023-04-17T08:29:50.504Z,17.80
2023-04-17T08:32:18.422Z,18.29
2023-04-17T08:34:46.842Z,18.90
2023-04-17T08:37:14.687Z,19.22
2023-04-17T08:39:43.829Z,19.79
2023-04-17T08:42:17.481Z,19.51
2023-04-17T08:44:46.533Z,19.95
2023-04-17T08:47:14.637Z,19.85
2023-04-17T08:49:44.001Z,20.04
2023-04-17T08:52:12.236Z,20.55
2023-04-17T08:54:40.027Z,20.68
2023-04-17T08:57:09.208Z,20.42
2023-04-17T08:59:37.041Z,21.07
2023-04-17T09:02:06.365Z,20.73
2023-04-17T09:04:39.366Z,21.67
2023-04-17T09:07:07.757Z,21.18
2023-04-17T09:09:52.900Z,21.87
2023-04-17T09:12:23.481Z,21.50
2023-04-17T09:14:51.768Z,21.99
2023-04-17T09:17:21.480Z,22.25
2023-04-17T09:20:06.508Z,21.83
2023-04-17T09:22:35.407Z,22.06
2023-04-17T09:25:03.294Z,22.29
2023-04-17T09:27:32.546Z,22.75
2023-04-17T09:30:02.624Z,22.96
2023-04-17T09:32:34.686Z,22.65
2023-04-17T09:35:05.024Z,23.83
2023-04-17T09:37:50.011Z,23.02
2023-04-17T09:40:18.711Z,24.08
2023-04-17T09:42:57.258Z,24.24
2023-04-17T09:45:26.138Z,24.77
2023-04-17T09:47:56.241Z,24.74
2023-04-17T09:50:25.546Z,25.22
2023-04-17T09:52:55.989Z,25.58
2023-04-17T09:55:26.667Z,25.71
2023-04-17T09:57:57.788Z,25.64
2023-04-17T10:00:27.594Z,26.16
2023-04-17T10:02:57.657Z,26.25
2023-04-17T10:05:27.107Z,26.45
2023-04-17T10:07:55.008Z,26.60
2023-04-17T10:10:24.549Z,26.04
2023-04-17T10:12:57.268Z,26.32
2023-04-17T10:15:26.081Z,26.42
2023-04-17T10:17:56.486Z,27.19
2023-04-17T10:20:35.407Z,27.78
2023-04-17T10:23:27.696Z,27.86
2023-04-17T10:26:43.223Z,27.71
2023-04-17T10:29:13.347Z,27.21
2023-04-17T10:32:16.553Z,27.68
2023-04-17T10:34:44.415Z,28.79
2023-04-17T10:37:15.325Z,28.60
2023-04-17T10:40:10.856Z,28.01
2023-04-17T10:42:38.670Z,27.35
2023-04-17T10:45:20.076Z,27.40
2023-04-17T10:47:59.585Z,27.52
2023-04-17T10:50:29.259Z,28.19
2023-04-17T10:52:57.130Z,27.99
2023-04-17T10:55:27.857Z,28.87
2023-04-17T10:57:59.036Z,28.51
2023-04-17T11:00:34.542Z,29.83
2023-04-17T11:03:03.441Z,29.17
2023-04-17T11:05:32.365Z,29.14
2023-04-17T11:08:00.588Z,28.22
2023-04-17T11:10:28.574Z,28.35
2023-04-17T11:12:56.857Z,28.77
2023-04-17T11:15:29.207Z,29.11
2023-04-17T11:18:00.109Z,30.27
2023-04-17T11:20:30.506Z,27.43
2023-04-17T11:23:01.405Z,27.23
2023-04-17T11:25:31.504Z,27.96
2023-04-17T11:28:00.816Z,27.42
2023-04-17T11:30:30.900Z,28.27
2023-04-17T11:33:02.255Z,28.19
2023-04-17T11:35:32.175Z,28.57
2023-04-17T11:38:12.069Z,28.83
2023-04-17T11:40:44.609Z,29.51
2023-04-17T11:43:13.341Z,30.42
2023-04-17T11:45:43.240Z,29.35
2023-04-17T11:48:14.508Z,29.46
2023-04-17T11:50:43.673Z,28.72
2023-04-17T11:53:15.382Z,28.38
2023-04-17T11:55:43.381Z,28.45
2023-04-17T11:58:15.076Z,29.06
2023-04-17T12:00:43.698Z,29.77
2023-04-17T12:03:35.898Z,29.47
2023-04-17T12:06:06.574Z,29.25
2023-04-17T12:08:43.374Z,29.88
2023-04-17T12:11:20.275Z,29.57
2023-04-17T12:13:48.212Z,30.55
2023-04-17T12:16:16.065Z,30.31
2023-04-17T12:18:45.955Z,29.78
2023-04-17T12:21:13.913Z,28.76
2023-04-17T12:23:42.300Z,29.02
2023-04-17T12:26:10.532Z,28.78
2023-04-17T12:28:39.003Z,29.57
2023-04-17T12:31:07.185Z,29.26
2023-04-17T12:33:35.372Z,29.08
2023-04-17T12:36:06.527Z,29.42
2023-04-17T12:38:34.441Z,29.51
2023-04-17T12:41:02.291Z,28.41
2023-04-17T12:43:30.105Z,28.98
2023-04-17T12:45:58.432Z,28.89
2023-04-17T12:48:26.457Z,28.16
2023-04-17T12:50:54.572Z,29.83
2023-04-17T12:53:23.902Z,30.10
2023-04-17T12:55:51.863Z,29.95
2023-04-17T12:58:19.683Z,30.02
2023-04-17T13:00:48.057Z,29.72
2023-04-17T13:03:16.153Z,29.42
2023-04-17T13:05:44.558Z,29.38
2023-04-17T13:08:15.194Z,28.40
2023-04-17T13:10:44.397Z,28.49
2023-04-17T13:13:12.636Z,29.17
2023-04-17T13:15:40.637Z,28.76
2023-04-17T13:18:10.529Z,29.72
2023-04-17T13:20:38.782Z,28.05
2023-04-17T13:23:06.631Z,28.58
2023-04-17T13:25:34.575Z,28.91
2023-04-17T13:28:03.894Z,28.94
2023-04-17T13:30:32.350Z,29.91
2023-04-17T13:33:03.370Z,30.17
2023-04-17T13:35:31.230Z,30.01
2023-04-17T13:38:02.227Z,29.99
2023-04-17T13:40:30.110Z,29.19
2023-04-17T13:42:58.524Z,28.71
2023-04-17T13:45:27.720Z,29.13
2023-04-17T13:47:55.911Z,28.88
2023-04-17T13:50:23.967Z,29.21
2023-04-17T13:52:51.726Z,29.78
2023-04-17T13:55:19.608Z,30.21
2023-04-17T13:57:47.379Z,29.99
2023-04-17T14:00:17.276Z,30.04
2023-04-17T14:02:49.222Z,30.17
2023-04-17T14:05:17.361Z,29.33
2023-04-17T14:07:45.639Z,29.33
2023-04-17T14:10:13.653Z,29.50
2023-04-17T14:12:41.646Z,30.06
2023-04-17T14:15:10.473Z,30.82
2023-04-17T14:17:42.839Z,29.58
2023-04-17T14:20:15.152Z,29.58
2023-04-17T14:22:43.087Z,29.36
2023-04-17T14:25:11.290Z,29.50
2023-04-17T14:27:39.790Z,29.43
2023-04-17T14:30:09.113Z,29.00
2023-04-17T14:32:38.455Z,28.78
2023-04-17T14:35:07.349Z,29.32
2023-04-17T14:37:36.523Z,29.36
2023-04-17T14:40:05.075Z,28.84
2023-04-17T14:42:38.090Z,27.62
2023-04-17T14:45:15.392Z,27.13
2023-04-17T14:47:44.128Z,26.24
2023-04-17T14:50:12.519Z,26.44
2023-04-17T14:52:41.866Z,27.03
2023-04-17T14:55:11.381Z,26.82
2023-04-17T14:57:40.426Z,27.41
2023-04-17T15:00:09.543Z,27.38
2023-04-17T15:02:39.546Z,26.02
2023-04-17T15:05:08.614Z,26.25
2023-04-17T15:07:36.808Z,26.44
2023-04-17T15:10:07.043Z,26.63
2023-04-17T15:12:34.801Z,26.67
2023-04-17T15:15:02.613Z,26.04
2023-04-17T15:17:30.628Z,26.20
2023-04-17T15:20:00.686Z,26.59
2023-04-17T15:22:28.552Z,26.27
2023-04-17T15:24:56.392Z,25.81
2023-04-17T15:27:25.799Z,25.32
2023-04-17T15:29:53.825Z,23.33
2023-04-17T15:32:21.872Z,21.86
2023-04-17T15:34:49.773Z,20.39
2023-04-17T15:37:17.693Z,20.08
2023-04-17T15:39:45.557Z,19.91
2023-04-17T15:42:13.319Z,19.04
2023-04-17T15:44:42.640Z,19.08
2023-04-17T15:47:10.442Z,19.64
2023-04-17T15:49:38.404Z,19.86
2023-04-17T15:52:06.872Z,20.97
2023-04-17T15:54:34.801Z,21.80
2023-04-17T15:57:02.729Z,22.59
2023-04-17T15:59:32.021Z,22.40
2023-04-17T16:02:01.492Z,21.37
2023-04-17T16:04:29.917Z,20.73
2023-04-17T16:06:57.900Z,20.49
2023-04-17T16:09:25.678Z,20.20
2023-04-17T16:11:54.760Z,18.99
2023-04-17T16:14:22.600Z,18.18
2023-04-17T16:16:50.518Z,17.13
2023-04-17T16:19:19.733Z,16.22
2023-04-17T16:21:47.681Z,15.66
2023-04-17T16:24:15.419Z,15.10
2023-04-17T16:26:44.060Z,14.54
2023-04-17T16:29:12.037Z,14.06
2023-04-17T16:31:40.137Z,13.78
2023-04-17T16:34:09.625Z,13.39
2023-04-17T16:36:38.914Z,12.96
2023-04-17T16:39:08.645Z,12.81
2023-04-17T16:41:36.706Z,12.61
2023-04-17T16:44:05.352Z,12.44
2023-04-17T16:46:45.694Z,12.27
2023-04-17T16:49:21.010Z,11.98
2023-04-17T16:51:50.229Z,11.85
2023-04-17T16:54:19.374Z,11.74
2023-04-17T16:56:48.237Z,11.65
2023-04-17T16:59:17.466Z,11.43
2023-04-17T17:01:49.750Z,11.33
2023-04-17T17:04:18.193Z,11.26
2023-04-17T17:06:46.265Z,11.14
2023-04-17T17:09:15.659Z,10.94
2023-04-17T17:11:43.607Z,10.80
2023-04-17T17:14:11.645Z,10.69
2023-04-17T17:16:41.054Z,10.52
2023-04-17T17:19:09.007Z,10.29
2023-04-17T17:21:36.962Z,10.17
2023-04-17T17:24:05.441Z,10.09
2023-04-17T17:26:35.614Z,10.01
2023-04-17T17:29:03.770Z,9.88
2023-04-17T17:31:31.734Z,9.75
2023-04-17T17:34:11.852Z,9.66
2023-04-17T17:36:48.913Z,9.50
2023-04-17T17:39:16.942Z,9.38
2023-04-17T17:41:47.529Z,9.21
2023-04-17T17:44:15.781Z,9.03
2023-04-17T17:46:43.623Z,9.02
2023-04-17T17:49:11.707Z,8.79
2023-04-17T17:51:39.620Z,8.62
2023-04-17T17:54:07.963Z,8.51
2023-04-17T17:56:35.852Z,8.43
2023-04-17T17:59:05.172Z,8.36
2023-04-17T18:01:33.327Z,8.24
2023-04-17T18:04:01.366Z,8.17
2023-04-17T18:06:29.399Z,8.13
2023-04-17T18:08:58.732Z,7.95
2023-04-17T18:11:27.270Z,7.88
2023-04-17T18:13:55.276Z,7.87
2023-04-17T18:16:24.960Z,7.79
2023-04-17T18:18:52.996Z,7.73
2023-04-17T18:21:20.995Z,7.65
2023-04-17T18:23:48.874Z,7.32
2023-04-17T18:26:16.764Z,7.34
2023-04-17T18:28:44.550Z,7.20
2023-04-17T18:31:12.616Z,7.05
2023-04-17T18:33:42.270Z,6.90
2023-04-17T18:36:10.335Z,6.75
2023-04-17T18:38:38.425Z,6.71
2023-04-17T18:41:06.599Z,6.62
2023-04-17T18:43:34.873Z,6.48
2023-04-17T18:46:04.745Z,6.34
2023-04-17T18:48:32.482Z,6.30
2023-04-17T18:51:11.499Z,6.22
2023-04-17T18:53:39.389Z,6.14
2023-04-17T18:56:08.597Z,6.03
2023-04-17T18:58:37.757Z,6.08
2023-04-17T19:01:06.511Z,6.06
2023-04-17T19:03:34.754Z,6.01
2023-04-17T19:06:02.823Z,5.92
2023-04-17T19:08:32.021Z,5.86
2023-04-17T19:10:59.892Z,5.75
2023-04-17T19:13:28.058Z,5.65
2023-04-17T19:15:56.132Z,5.57
2023-04-17T19:18:24.101Z,5.52
2023-04-17T19:20:52.024Z,5.44
2023-04-17T19:23:44.913Z,5.32
2023-04-17T19:26:39.420Z,5.13
2023-04-17T19:29:07.260Z,4.97
2023-04-17T19:31:35.267Z,4.85
2023-04-17T19:34:03.235Z,4.77
2023-04-17T19:36:31.123Z,4.70
2023-04-17T19:38:59.797Z,4.61
2023-04-17T19:41:27.654Z,4.51
2023-04-17T19:43:56.827Z,4.45
2023-04-17T19:46:26.116Z,4.36
2023-04-17T19:48:54.180Z,4.25
2023-04-17T19:51:22.217Z,4.16
2023-04-17T19:53:49.915Z,4.04
2023-04-17T19:56:17.922Z,3.95
2023-04-17T19:58:45.768Z,3.96
2023-04-17T20:01:15.533Z,3.84
2023-04-17T20:03:45.446Z,3.80
2023-04-17T20:06:13.926Z,3.79
2023-04-17T20:08:41.775Z,3.74
2023-04-17T20:11:12.157Z,3.71
2023-04-17T20:13:40.398Z,3.75
2023-04-17T20:16:08.576Z,3.72
2023-04-17T20:18:38.208Z,3.70
2023-04-17T20:21:07.120Z,3.66
2023-04-17T20:23:35.035Z,3.58
2023-04-17T20:26:03.380Z,3.55
2023-04-17T20:28:31.403Z,3.58
2023-04-17T20:30:59.288Z,3.56
2023-04-17T20:33:27.175Z,3.58
2023-04-17T20:35:56.379Z,3.54
2023-04-17T20:38:24.216Z,3.47
2023-04-17T20:40:51.996Z,3.43
2023-04-17T20:43:19.727Z,3.39
2023-04-17T20:45:48.422Z,3.08
2023-04-17T20:48:16.572Z,3.22
2023-04-17T20:50:44.414Z,3.24
2023-04-17T20:53:13.627Z,3.23
2023-04-17T20:55:41.400Z,3.18
2023-04-17T20:58:09.274Z,3.03
2023-04-17T21:00:42.042Z,2.92
2023-04-17T21:03:15.509Z,2.78
2023-04-17T21:05:43.470Z,2.72
2023-04-17T21:08:12.831Z,2.78
2023-04-17T21:10:41.338Z,2.68
2023-04-17T21:13:09.548Z,2.57
2023-04-17T21:15:37.358Z,2.56
2023-04-17T21:18:05.360Z,2.46
2023-04-17T21:20:33.264Z,2.35
2023-04-17T21:23:01.277Z,2.22
2023-04-17T21:25:30.400Z,2.20
2023-04-17T21:27:58.252Z,2.18
2023-04-17T21:30:27.440Z,2.10
2023-04-17T21:32:56.062Z,1.99
2023-04-17T21:35:24.020Z,1.91
2023-04-17T21:37:51.858Z,1.81
2023-04-17T21:40:19.866Z,1.72
2023-04-17T21:42:49.000Z,1.61
2023-04-17T21:45:17.291Z,1.59
2023-04-17T21:47:45.087Z,1.52
2023-04-17T21:50:13.000Z,1.46
2023-04-17T21:52:41.248Z,1.37
2023-04-17T21:55:09.818Z,1.27
2023-04-17T21:57:37.574Z,1.18
2023-04-17T22:00:11.615Z,1.07
2023-04-17T22:02:39.877Z,0.96
2023-04-17T22:05:08.222Z,0.88
2023-04-17T22:07:47.303Z,0.79
2023-04-17T22:10:22.011Z,0.72
2023-04-17T22:12:49.881Z,0.65
2023-04-17T22:15:19.332Z,0.56
2023-04-17T22:17:47.316Z,0.49
2023-04-17T22:20:15.572Z,0.45
2023-04-17T22:23:38.221Z,0.38
2023-04-17T22:27:01.317Z,0.32
2023-04-17T22:30:23.985Z,0.28
2023-04-17T22:33:47.445Z,0.24
2023-04-17T22:37:10.197Z,0.16
2023-04-17T22:40:32.817Z,0.10
2023-04-17T22:43:55.847Z,0.08
2023-04-17T22:46:25.251Z,0.08
2023-04-17T22:48:53.486Z,0.09
2023-04-17T22:51:21.392Z,0.02
2023-04-17T22:53:49.437Z,0.00
2023-04-17T22:56:17.387Z,-0.01
2023-04-17T22:58:45.401Z,-0.04
2023-04-17T23:01:13.414Z,-0.09
2023-04-17T23:03:42.791Z,-0.16
2023-04-17T23:06:11.332Z,-0.18
2023-04-17T23:08:39.285Z,-0.22
2023-04-17T23:11:07.674Z,-0.31
2023-04-17T23:13:37.378Z,-0.62
2023-04-17T23:16:05.494Z,-0.45
2023-04-17T23:18:33.368Z,-0.50
2023-04-17T23:21:02.580Z,-0.57
2023-04-17T23:23:30.378Z,-0.56
2023-04-17T23:25:58.462Z,-0.57
2023-04-17T23:28:30.427Z,-0.56
2023-04-17T23:30:58.661Z,-0.55
2023-04-17T23:33:26.761Z,-0.52
2023-04-17T23:35:54.503Z,-0.51
2023-04-17T23:38:23.781Z,-0.53
2023-04-17T23:40:51.789Z,-0.52
2023-04-17T23:43:19.570Z,-0.54
2023-04-17T23:45:47.640Z,-0.58
2023-04-17T23:48:15.421Z,-0.62
2023-04-17T23:50:43.294Z,-0.62
2023-04-17T23:53:11.272Z,-0.67
2023-04-17T23:55:40.762Z,-0.67
2023-04-17T23:58:09.050Z,-0.68
